sensor_id;sensor_type;location;lat;lon;timestamp;P1;durP1;ratioP1;P2;durP2;ratioP2
21305;SDS011;10812;51.838;5.838;2023-03-03T00:01:51;35.80;;;16.83;;
21305;SDS011;10812;51.838;5.838;2023-03-03T00:04:19;34.30;;;16.93;;
21305;SDS011;10812;51.838;5.838;2023-03-03T00:06:47;30.83;;;16.67;;
21305;SDS011;10812;51.838;5.838;2023-03-03T00:09:15;29.60;;;16.10;;
21305;SDS011;10812;51.838;5.838;2023-03-03T00:11:46;30.77;;;15.00;;
21305;SDS011;10812;51.838;5.838;2023-03-03T00:14:22;30.00;;;15.27;;
21305;SDS011;10812;51.838;5.838;2023-03-03T00:16:55;38.63;;;16.97;;
21305;SDS011;10812;51.838;5.838;2023-03-03T00:19:26;38.73;;;17.60;;
21305;SDS011;10812;51.838;5.838;2023-03-03T00:22:06;35.60;;;17.50;;
21305;SDS011;10812;51.838;5.838;2023-03-03T00:24:42;35.47;;;17.33;;
21305;SDS011;10812;51.838;5.838;2023-03-03T00:27:15;35.30;;;16.87;;
21305;SDS011;10812;51.838;5.838;2023-03-03T00:29:51;35.37;;;16.70;;
21305;SDS011;10812;51.838;5.838;2023-03-03T00:32:23;35.23;;;16.73;;
21305;SDS011;10812;51.838;5.838;2023-03-03T00:34:53;32.03;;;14.87;;
21305;SDS011;10812;51.838;5.838;2023-03-03T00:37:30;32.60;;;16.40;;
21305;SDS011;10812;51.838;5.838;2023-03-03T00:40:02;31.00;;;14.50;;
21305;SDS011;10812;51.838;5.838;2023-03-03T00:42:43;34.70;;;17.10;;
21305;SDS011;10812;51.838;5.838;2023-03-03T00:45:20;36.27;;;16.33;;
21305;SDS011;10812;51.838;5.838;2023-03-03T00:47:53;37.20;;;15.30;;
21305;SDS011;10812;51.838;5.838;2023-03-03T00:50:24;30.57;;;14.50;;
21305;SDS011;10812;51.838;5.838;2023-03-03T00:52:58;37.70;;;17.23;;
21305;SDS011;10812;51.838;5.838;2023-03-03T00:55:29;30.37;;;15.07;;
21305;SDS011;10812;51.838;5.838;2023-03-03T00:57:58;32.83;;;16.43;;
21305;SDS011;10812;51.838;5.838;2023-03-03T01:00:28;34.30;;;16.73;;
21305;SDS011;10812;51.838;5.838;2023-03-03T01:03:01;37.27;;;16.37;;
21305;SDS011;10812;51.838;5.838;2023-03-03T01:05:31;30.97;;;15.47;;
21305;SDS011;10812;51.838;5.838;2023-03-03T01:08:00;32.47;;;15.20;;
21305;SDS011;10812;51.838;5.838;2023-03-03T01:10:29;31.80;;;14.83;;
21305;SDS011;10812;51.838;5.838;2023-03-03T01:13:00;33.63;;;17.20;;
21305;SDS011;10812;51.838;5.838;2023-03-03T01:15:31;36.37;;;16.33;;
21305;SDS011;10812;51.838;5.838;2023-03-03T01:18:02;34.37;;;16.50;;
21305;SDS011;10812;51.838;5.838;2023-03-03T01:20:30;33.20;;;14.67;;
21305;SDS011;10812;51.838;5.838;2023-03-03T01:22:59;30.83;;;14.90;;
21305;SDS011;10812;51.838;5.838;2023-03-03T01:25:27;32.67;;;16.87;;
21305;SDS011;10812;51.838;5.838;2023-03-03T01:27:55;31.03;;;14.27;;
21305;SDS011;10812;51.838;5.838;2023-03-03T01:30:24;34.13;;;15.87;;
21305;SDS011;10812;51.838;5.838;2023-03-03T01:32:54;30.17;;;14.60;;
21305;SDS011;10812;51.838;5.838;2023-03-03T01:35:22;35.97;;;15.70;;
21305;SDS011;10812;51.838;5.838;2023-03-03T01:37:50;26.87;;;14.10;;
21305;SDS011;10812;51.838;5.838;2023-03-03T01:40:20;39.33;;;16.07;;
21305;SDS011;10812;51.838;5.838;2023-03-03T01:49:24;30.67;;;15.13;;
21305;SDS011;10812;51.838;5.838;2023-03-03T01:51:56;28.13;;;14.27;;
21305;SDS011;10812;51.838;5.838;2023-03-03T01:54:27;31.33;;;13.63;;
21305;SDS011;10812;51.838;5.838;2023-03-03T01:56:58;28.67;;;13.10;;
21305;SDS011;10812;51.838;5.838;2023-03-03T01:59:30;30.97;;;12.93;;
21305;SDS011;10812;51.838;5.838;2023-03-03T02:02:00;25.63;;;12.83;;
21305;SDS011;10812;51.838;5.838;2023-03-03T02:04:30;34.13;;;14.77;;
21305;SDS011;10812;51.838;5.838;2023-03-03T02:07:01;18.37;;;11.90;;
21305;SDS011;10812;51.838;5.838;2023-03-03T02:09:37;25.73;;;12.47;;
21305;SDS011;10812;51.838;5.838;2023-03-03T02:12:10;26.87;;;12.67;;
21305;SDS011;10812;51.838;5.838;2023-03-03T02:14:40;27.17;;;12.83;;
21305;SDS011;10812;51.838;5.838;2023-03-03T02:17:08;26.67;;;13.27;;
21305;SDS011;10812;51.838;5.838;2023-03-03T02:19:40;24.77;;;12.07;;
21305;SDS011;10812;51.838;5.838;2023-03-03T02:22:14;28.33;;;11.97;;
21305;SDS011;10812;51.838;5.838;2023-03-03T02:24:48;28.80;;;13.60;;
21305;SDS011;10812;51.838;5.838;2023-03-03T02:27:21;28.33;;;11.73;;
21305;SDS011;10812;51.838;5.838;2023-03-03T02:29:49;29.13;;;12.80;;
21305;SDS011;10812;51.838;5.838;2023-03-03T02:32:17;28.27;;;14.03;;
21305;SDS011;10812;51.838;5.838;2023-03-03T02:34:48;29.33;;;13.57;;
21305;SDS011;10812;51.838;5.838;2023-03-03T02:37:18;28.63;;;13.07;;
21305;SDS011;10812;51.838;5.838;2023-03-03T02:39:46;25.47;;;12.07;;
21305;SDS011;10812;51.838;5.838;2023-03-03T02:42:15;25.93;;;13.33;;
21305;SDS011;10812;51.838;5.838;2023-03-03T02:44:49;28.70;;;14.07;;
21305;SDS011;10812;51.838;5.838;2023-03-03T02:47:17;26.77;;;13.00;;
21305;SDS011;10812;51.838;5.838;2023-03-03T02:49:45;28.50;;;12.20;;
21305;SDS011;10812;51.838;5.838;2023-03-03T02:52:14;30.30;;;12.60;;
21305;SDS011;10812;51.838;5.838;2023-03-03T02:54:44;26.90;;;12.33;;
21305;SDS011;10812;51.838;5.838;2023-03-03T02:57:12;28.23;;;14.07;;
21305;SDS011;10812;51.838;5.838;2023-03-03T03:08:21;26.97;;;13.30;;
21305;SDS011;10812;51.838;5.838;2023-03-03T03:10:49;26.60;;;12.67;;
21305;SDS011;10812;51.838;5.838;2023-03-03T03:13:17;24.73;;;11.80;;
21305;SDS011;10812;51.838;5.838;2023-03-03T03:15:45;27.30;;;12.53;;
21305;SDS011;10812;51.838;5.838;2023-03-03T03:18:13;30.33;;;13.60;;
21305;SDS011;10812;51.838;5.838;2023-03-03T03:20:42;27.33;;;13.33;;
21305;SDS011;10812;51.838;5.838;2023-03-03T03:23:13;28.47;;;13.33;;
21305;SDS011;10812;51.838;5.838;2023-03-03T03:25:44;29.30;;;14.20;;
21305;SDS011;10812;51.838;5.838;2023-03-03T03:28:13;29.30;;;13.23;;
21305;SDS011;10812;51.838;5.838;2023-03-03T03:30:42;28.67;;;12.70;;
21305;SDS011;10812;51.838;5.838;2023-03-03T03:33:11;25.60;;;12.87;;
21305;SDS011;10812;51.838;5.838;2023-03-03T03:35:39;25.33;;;12.67;;
21305;SDS011;10812;51.838;5.838;2023-03-03T03:38:11;22.70;;;12.03;;
21305;SDS011;10812;51.838;5.838;2023-03-03T03:40:40;29.07;;;13.87;;
21305;SDS011;10812;51.838;5.838;2023-03-03T03:43:10;24.73;;;10.73;;
21305;SDS011;10812;51.838;5.838;2023-03-03T03:45:38;30.27;;;13.20;;
21305;SDS011;10812;51.838;5.838;2023-03-03T03:48:08;28.13;;;13.20;;
21305;SDS011;10812;51.838;5.838;2023-03-03T03:50:37;27.37;;;12.90;;
21305;SDS011;10812;51.838;5.838;2023-03-03T03:53:05;23.93;;;11.93;;
21305;SDS011;10812;51.838;5.838;2023-03-03T03:55:34;29.27;;;13.03;;
21305;SDS011;10812;51.838;5.838;2023-03-03T03:58:02;27.80;;;13.17;;
21305;SDS011;10812;51.838;5.838;2023-03-03T04:00:31;29.63;;;12.40;;
21305;SDS011;10812;51.838;5.838;2023-03-03T04:03:00;28.90;;;12.50;;
21305;SDS011;10812;51.838;5.838;2023-03-03T04:05:28;28.10;;;11.63;;
21305;SDS011;10812;51.838;5.838;2023-03-03T04:07:56;31.60;;;13.37;;
21305;SDS011;10812;51.838;5.838;2023-03-03T04:10:24;25.83;;;12.97;;
21305;SDS011;10812;51.838;5.838;2023-03-03T04:12:52;30.50;;;13.40;;
21305;SDS011;10812;51.838;5.838;2023-03-03T04:15:20;27.63;;;12.83;;
21305;SDS011;10812;51.838;5.838;2023-03-03T04:17:49;35.30;;;13.90;;
21305;SDS011;10812;51.838;5.838;2023-03-03T04:20:18;33.93;;;14.77;;
21305;SDS011;10812;51.838;5.838;2023-03-03T04:22:46;36.73;;;15.10;;
21305;SDS011;10812;51.838;5.838;2023-03-03T04:25:14;35.80;;;14.70;;
21305;SDS011;10812;51.838;5.838;2023-03-03T04:27:43;35.97;;;15.90;;
21305;SDS011;10812;51.838;5.838;2023-03-03T04:30:12;37.90;;;15.27;;
21305;SDS011;10812;51.838;5.838;2023-03-03T04:32:41;30.50;;;14.03;;
21305;SDS011;10812;51.838;5.838;2023-03-03T04:35:11;31.83;;;13.77;;
21305;SDS011;10812;51.838;5.838;2023-03-03T04:37:39;32.10;;;13.30;;
21305;SDS011;10812;51.838;5.838;2023-03-03T04:40:07;32.07;;;14.27;;
21305;SDS011;10812;51.838;5.838;2023-03-03T04:42:36;38.27;;;15.33;;
21305;SDS011;10812;51.838;5.838;2023-03-03T04:45:05;34.93;;;13.63;;
21305;SDS011;10812;51.838;5.838;2023-03-03T04:47:34;31.07;;;13.90;;
21305;SDS011;10812;51.838;5.838;2023-03-03T04:50:02;33.90;;;13.43;;
21305;SDS011;10812;51.838;5.838;2023-03-03T04:52:32;33.17;;;14.27;;
21305;SDS011;10812;51.838;5.838;2023-03-03T04:55:00;34.40;;;13.03;;
21305;SDS011;10812;51.838;5.838;2023-03-03T04:57:28;34.07;;;14.80;;
21305;SDS011;10812;51.838;5.838;2023-03-03T04:59:57;33.30;;;14.10;;
21305;SDS011;10812;51.838;5.838;2023-03-03T05:02:25;32.13;;;15.40;;
21305;SDS011;10812;51.838;5.838;2023-03-03T05:04:53;34.63;;;15.10;;
21305;SDS011;10812;51.838;5.838;2023-03-03T05:07:21;33.83;;;14.43;;
21305;SDS011;10812;51.838;5.838;2023-03-03T05:09:51;29.17;;;14.83;;
21305;SDS011;10812;51.838;5.838;2023-03-03T05:12:19;26.97;;;12.77;;
21305;SDS011;10812;51.838;5.838;2023-03-03T05:14:47;24.90;;;12.33;;
21305;SDS011;10812;51.838;5.838;2023-03-03T05:17:15;30.80;;;14.50;;
21305;SDS011;10812;51.838;5.838;2023-03-03T05:19:43;30.93;;;13.67;;
21305;SDS011;10812;51.838;5.838;2023-03-03T05:22:11;27.87;;;13.93;;
21305;SDS011;10812;51.838;5.838;2023-03-03T05:24:39;28.83;;;14.50;;
21305;SDS011;10812;51.838;5.838;2023-03-03T05:27:10;29.87;;;13.13;;
21305;SDS011;10812;51.838;5.838;2023-03-03T05:29:38;32.50;;;13.90;;
21305;SDS011;10812;51.838;5.838;2023-03-03T05:32:06;24.83;;;12.23;;
21305;SDS011;10812;51.838;5.838;2023-03-03T05:45:58;26.90;;;12.20;;
21305;SDS011;10812;51.838;5.838;2023-03-03T05:48:26;33.13;;;14.60;;
21305;SDS011;10812;51.838;5.838;2023-03-03T05:50:56;29.13;;;13.47;;
21305;SDS011;10812;51.838;5.838;2023-03-03T05:53:25;27.63;;;13.17;;
21305;SDS011;10812;51.838;5.838;2023-03-03T05:55:53;28.70;;;13.50;;
21305;SDS011;10812;51.838;5.838;2023-03-03T05:58:21;32.13;;;13.43;;
21305;SDS011;10812;51.838;5.838;2023-03-03T06:00:49;31.80;;;13.43;;
21305;SDS011;10812;51.838;5.838;2023-03-03T06:03:19;30.33;;;13.53;;
21305;SDS011;10812;51.838;5.838;2023-03-03T06:05:47;33.10;;;13.60;;
21305;SDS011;10812;51.838;5.838;2023-03-03T06:08:15;32.37;;;13.10;;
21305;SDS011;10812;51.838;5.838;2023-03-03T06:10:43;33.70;;;14.23;;
21305;SDS011;10812;51.838;5.838;2023-03-03T06:13:11;26.50;;;12.67;;
21305;SDS011;10812;51.838;5.838;2023-03-03T06:15:39;29.20;;;13.47;;
21305;SDS011;10812;51.838;5.838;2023-03-03T06:18:08;32.57;;;12.87;;
21305;SDS011;10812;51.838;5.838;2023-03-03T06:20:37;26.93;;;13.13;;
21305;SDS011;10812;51.838;5.838;2023-03-03T06:23:06;28.20;;;13.50;;
21305;SDS011;10812;51.838;5.838;2023-03-03T06:25:34;29.40;;;13.50;;
21305;SDS011;10812;51.838;5.838;2023-03-03T06:28:02;24.33;;;12.47;;
21305;SDS011;10812;51.838;5.838;2023-03-03T06:30:30;28.87;;;13.67;;
21305;SDS011;10812;51.838;5.838;2023-03-03T06:32:58;29.50;;;14.00;;
21305;SDS011;10812;51.838;5.838;2023-03-03T06:35:26;35.37;;;15.03;;
21305;SDS011;10812;51.838;5.838;2023-03-03T06:37:56;32.63;;;14.47;;
21305;SDS011;10812;51.838;5.838;2023-03-03T06:40:24;29.87;;;13.53;;
21305;SDS011;10812;51.838;5.838;2023-03-03T06:42:52;27.97;;;12.20;;
21305;SDS011;10812;51.838;5.838;2023-03-03T06:45:20;29.83;;;13.03;;
21305;SDS011;10812;51.838;5.838;2023-03-03T06:47:48;27.20;;;12.10;;
21305;SDS011;10812;51.838;5.838;2023-03-03T06:50:17;27.23;;;11.83;;
21305;SDS011;10812;51.838;5.838;2023-03-03T06:52:47;30.83;;;13.33;;
21305;SDS011;10812;51.838;5.838;2023-03-03T06:55:19;25.33;;;11.63;;
21305;SDS011;10812;51.838;5.838;2023-03-03T06:57:49;26.70;;;12.00;;
21305;SDS011;10812;51.838;5.838;2023-03-03T07:00:22;27.23;;;11.97;;
21305;SDS011;10812;51.838;5.838;2023-03-03T07:02:52;27.47;;;12.23;;
21305;SDS011;10812;51.838;5.838;2023-03-03T07:05:26;25.43;;;11.13;;
21305;SDS011;10812;51.838;5.838;2023-03-03T07:07:55;27.03;;;11.17;;
21305;SDS011;10812;51.838;5.838;2023-03-03T07:10:25;25.63;;;11.53;;
21305;SDS011;10812;51.838;5.838;2023-03-03T07:12:55;24.03;;;10.70;;
21305;SDS011;10812;51.838;5.838;2023-03-03T07:15:29;26.67;;;11.13;;
21305;SDS011;10812;51.838;5.838;2023-03-03T07:18:01;24.00;;;11.37;;
21305;SDS011;10812;51.838;5.838;2023-03-03T07:20:37;24.07;;;10.87;;
21305;SDS011;10812;51.838;5.838;2023-03-03T07:23:09;28.53;;;11.90;;
21305;SDS011;10812;51.838;5.838;2023-03-03T07:25:46;29.10;;;11.87;;
21305;SDS011;10812;51.838;5.838;2023-03-03T07:28:17;23.40;;;11.33;;
21305;SDS011;10812;51.838;5.838;2023-03-03T07:30:49;20.97;;;9.77;;
21305;SDS011;10812;51.838;5.838;2023-03-03T07:33:18;22.63;;;9.47;;
21305;SDS011;10812;51.838;5.838;2023-03-03T07:35:52;21.43;;;9.10;;
21305;SDS011;10812;51.838;5.838;2023-03-03T07:38:28;20.27;;;9.57;;
21305;SDS011;10812;51.838;5.838;2023-03-03T07:41:03;19.67;;;8.83;;
21305;SDS011;10812;51.838;5.838;2023-03-03T07:43:35;18.93;;;8.47;;
21305;SDS011;10812;51.838;5.838;2023-03-03T07:46:14;15.77;;;8.37;;
21305;SDS011;10812;51.838;5.838;2023-03-03T07:48:49;16.40;;;7.90;;
21305;SDS011;10812;51.838;5.838;2023-03-03T07:51:19;25.83;;;8.57;;
21305;SDS011;10812;51.838;5.838;2023-03-03T07:53:51;17.83;;;8.20;;
21305;SDS011;10812;51.838;5.838;2023-03-03T07:56:33;18.13;;;8.53;;
21305;SDS011;10812;51.838;5.838;2023-03-03T07:59:02;17.33;;;8.97;;
21305;SDS011;10812;51.838;5.838;2023-03-03T08:01:43;18.27;;;9.57;;
21305;SDS011;10812;51.838;5.838;2023-03-03T08:04:15;17.20;;;8.23;;
21305;SDS011;10812;51.838;5.838;2023-03-03T08:06:49;20.13;;;8.47;;
21305;SDS011;10812;51.838;5.838;2023-03-03T08:15:23;14.77;;;7.63;;
21305;SDS011;10812;51.838;5.838;2023-03-03T08:17:54;14.67;;;8.00;;
21305;SDS011;10812;51.838;5.838;2023-03-03T08:20:40;14.73;;;7.23;;
21305;SDS011;10812;51.838;5.838;2023-03-03T08:23:13;19.57;;;9.20;;
21305;SDS011;10812;51.838;5.838;2023-03-03T08:25:43;18.10;;;8.97;;
21305;SDS011;10812;51.838;5.838;2023-03-03T08:28:12;18.67;;;9.13;;
21305;SDS011;10812;51.838;5.838;2023-03-03T08:30:42;16.17;;;8.43;;
21305;SDS011;10812;51.838;5.838;2023-03-03T08:33:12;18.47;;;8.03;;
21305;SDS011;10812;51.838;5.838;2023-03-03T08:35:40;16.53;;;8.73;;
21305;SDS011;10812;51.838;5.838;2023-03-03T08:38:09;19.87;;;9.80;;
21305;SDS011;10812;51.838;5.838;2023-03-03T08:40:38;16.20;;;8.90;;
21305;SDS011;10812;51.838;5.838;2023-03-03T08:43:06;15.30;;;8.07;;
21305;SDS011;10812;51.838;5.838;2023-03-03T08:45:34;19.07;;;8.27;;
21305;SDS011;10812;51.838;5.838;2023-03-03T08:48:04;22.93;;;9.50;;
21305;SDS011;10812;51.838;5.838;2023-03-03T08:50:33;17.63;;;9.03;;
21305;SDS011;10812;51.838;5.838;2023-03-03T08:53:01;18.20;;;8.33;;
21305;SDS011;10812;51.838;5.838;2023-03-03T08:55:29;17.63;;;8.43;;
21305;SDS011;10812;51.838;5.838;2023-03-03T08:57:57;20.57;;;7.87;;
21305;SDS011;10812;51.838;5.838;2023-03-03T09:00:25;14.87;;;7.97;;
21305;SDS011;10812;51.838;5.838;2023-03-03T09:02:54;13.13;;;6.10;;
21305;SDS011;10812;51.838;5.838;2023-03-03T09:05:23;13.33;;;6.73;;
21305;SDS011;10812;51.838;5.838;2023-03-03T09:07:52;17.53;;;8.10;;
21305;SDS011;10812;51.838;5.838;2023-03-03T09:10:22;14.47;;;7.50;;
21305;SDS011;10812;51.838;5.838;2023-03-03T09:12:54;15.57;;;7.10;;
21305;SDS011;10812;51.838;5.838;2023-03-03T09:15:25;17.23;;;7.47;;
21305;SDS011;10812;51.838;5.838;2023-03-03T09:17:56;15.57;;;7.57;;
21305;SDS011;10812;51.838;5.838;2023-03-03T09:20:37;17.87;;;8.67;;
21305;SDS011;10812;51.838;5.838;2023-03-03T09:23:21;16.17;;;7.80;;
21305;SDS011;10812;51.838;5.838;2023-03-03T09:28:53;16.97;;;7.77;;
21305;SDS011;10812;51.838;5.838;2023-03-03T09:31:25;12.80;;;6.80;;
21305;SDS011;10812;51.838;5.838;2023-03-03T09:34:08;15.30;;;7.30;;
21305;SDS011;10812;51.838;5.838;2023-03-03T09:36:44;13.70;;;6.27;;
21305;SDS011;10812;51.838;5.838;2023-03-03T09:39:15;15.43;;;7.50;;
21305;SDS011;10812;51.838;5.838;2023-03-03T09:47:45;15.07;;;7.23;;
21305;SDS011;10812;51.838;5.838;2023-03-03T09:50:31;13.87;;;6.90;;
21305;SDS011;10812;51.838;5.838;2023-03-03T09:53:09;14.07;;;6.90;;
21305;SDS011;10812;51.838;5.838;2023-03-03T09:55:47;12.70;;;6.53;;
21305;SDS011;10812;51.838;5.838;2023-03-03T09:58:27;13.73;;;6.70;;
21305;SDS011;10812;51.838;5.838;2023-03-03T10:01:16;12.07;;;6.57;;
21305;SDS011;10812;51.838;5.838;2023-03-03T10:04:12;10.53;;;5.73;;
21305;SDS011;10812;51.838;5.838;2023-03-03T10:06:51;14.37;;;6.00;;
21305;SDS011;10812;51.838;5.838;2023-03-03T10:09:34;11.67;;;6.33;;
21305;SDS011;10812;51.838;5.838;2023-03-03T10:12:15;10.57;;;5.27;;
21305;SDS011;10812;51.838;5.838;2023-03-03T10:14:51;13.23;;;6.03;;
21305;SDS011;10812;51.838;5.838;2023-03-03T10:17:31;9.73;;;5.83;;
21305;SDS011;10812;51.838;5.838;2023-03-03T10:20:15;11.43;;;5.50;;
21305;SDS011;10812;51.838;5.838;2023-03-03T10:23:18;8.33;;;4.90;;
21305;SDS011;10812;51.838;5.838;2023-03-03T10:25:51;8.83;;;5.80;;
21305;SDS011;10812;51.838;5.838;2023-03-03T10:31:32;10.53;;;4.57;;
21305;SDS011;10812;51.838;5.838;2023-03-03T10:34:15;10.33;;;5.13;;
21305;SDS011;10812;51.838;5.838;2023-03-03T10:36:51;9.57;;;5.27;;
21305;SDS011;10812;51.838;5.838;2023-03-03T10:39:32;10.47;;;4.70;;
21305;SDS011;10812;51.838;5.838;2023-03-03T10:42:22;9.03;;;4.43;;
21305;SDS011;10812;51.838;5.838;2023-03-03T10:45:05;11.87;;;5.80;;
21305;SDS011;10812;51.838;5.838;2023-03-03T10:48:01;11.90;;;5.23;;
21305;SDS011;10812;51.838;5.838;2023-03-03T10:50:46;10.80;;;5.73;;
21305;SDS011;10812;51.838;5.838;2023-03-03T10:53:21;10.03;;;4.77;;
21305;SDS011;10812;51.838;5.838;2023-03-03T10:55:56;12.37;;;5.80;;
21305;SDS011;10812;51.838;5.838;2023-03-03T10:58:42;11.27;;;6.13;;
21305;SDS011;10812;51.838;5.838;2023-03-03T11:01:17;9.00;;;5.07;;
21305;SDS011;10812;51.838;5.838;2023-03-03T11:03:58;6.57;;;4.37;;
21305;SDS011;10812;51.838;5.838;2023-03-03T11:06:39;10.13;;;5.20;;
21305;SDS011;10812;51.838;5.838;2023-03-03T11:09:16;7.70;;;4.90;;
21305;SDS011;10812;51.838;5.838;2023-03-03T11:12:04;9.10;;;4.93;;
21305;SDS011;10812;51.838;5.838;2023-03-03T11:14:50;8.63;;;4.70;;
21305;SDS011;10812;51.838;5.838;2023-03-03T11:17:32;9.20;;;5.27;;
21305;SDS011;10812;51.838;5.838;2023-03-03T11:20:18;9.17;;;4.50;;
21305;SDS011;10812;51.838;5.838;2023-03-03T11:22:59;9.73;;;5.03;;
21305;SDS011;10812;51.838;5.838;2023-03-03T11:25:38;8.93;;;5.70;;
21305;SDS011;10812;51.838;5.838;2023-03-03T11:28:19;10.73;;;5.27;;
21305;SDS011;10812;51.838;5.838;2023-03-03T11:30:59;10.27;;;5.63;;
21305;SDS011;10812;51.838;5.838;2023-03-03T11:33:36;10.90;;;5.23;;
21305;SDS011;10812;51.838;5.838;2023-03-03T11:36:10;9.37;;;5.30;;
21305;SDS011;10812;51.838;5.838;2023-03-03T11:38:46;7.80;;;4.17;;
21305;SDS011;10812;51.838;5.838;2023-03-03T11:41:29;8.27;;;4.90;;
21305;SDS011;10812;51.838;5.838;2023-03-03T11:46:50;8.17;;;4.27;;
21305;SDS011;10812;51.838;5.838;2023-03-03T11:49:24;8.53;;;4.27;;
21305;SDS011;10812;51.838;5.838;2023-03-03T11:52:02;8.23;;;4.60;;
21305;SDS011;10812;51.838;5.838;2023-03-03T11:54:37;8.93;;;4.70;;
21305;SDS011;10812;51.838;5.838;2023-03-03T11:57:15;8.27;;;4.77;;
21305;SDS011;10812;51.838;5.838;2023-03-03T11:59:48;7.73;;;4.60;;
21305;SDS011;10812;51.838;5.838;2023-03-03T12:11:23;7.90;;;4.13;;
21305;SDS011;10812;51.838;5.838;2023-03-03T12:13:55;9.67;;;4.60;;
21305;SDS011;10812;51.838;5.838;2023-03-03T12:16:31;7.03;;;4.17;;
21305;SDS011;10812;51.838;5.838;2023-03-03T12:19:12;7.93;;;4.43;;
21305;SDS011;10812;51.838;5.838;2023-03-03T12:21:55;6.33;;;4.10;;
21305;SDS011;10812;51.838;5.838;2023-03-03T12:27:47;6.67;;;4.17;;
21305;SDS011;10812;51.838;5.838;2023-03-03T12:30:20;6.70;;;4.33;;
21305;SDS011;10812;51.838;5.838;2023-03-03T12:32:59;9.10;;;4.97;;
21305;SDS011;10812;51.838;5.838;2023-03-03T12:35:41;7.30;;;4.67;;
21305;SDS011;10812;51.838;5.838;2023-03-03T12:38:17;8.37;;;3.43;;
21305;SDS011;10812;51.838;5.838;2023-03-03T12:40:57;7.13;;;4.13;;
21305;SDS011;10812;51.838;5.838;2023-03-03T12:43:39;6.33;;;3.80;;
21305;SDS011;10812;51.838;5.838;2023-03-03T12:46:23;5.93;;;3.53;;
21305;SDS011;10812;51.838;5.838;2023-03-03T12:48:57;8.43;;;4.00;;
21305;SDS011;10812;51.838;5.838;2023-03-03T12:51:30;6.83;;;3.70;;
21305;SDS011;10812;51.838;5.838;2023-03-03T12:54:13;6.27;;;4.10;;
21305;SDS011;10812;51.838;5.838;2023-03-03T12:57:04;6.13;;;3.40;;
21305;SDS011;10812;51.838;5.838;2023-03-03T12:59:43;6.23;;;3.80;;
21305;SDS011;10812;51.838;5.838;2023-03-03T13:02:32;5.87;;;3.77;;
21305;SDS011;10812;51.838;5.838;2023-03-03T13:05:20;4.93;;;3.50;;
21305;SDS011;10812;51.838;5.838;2023-03-03T13:11:25;5.33;;;3.30;;
21305;SDS011;10812;51.838;5.838;2023-03-03T13:14:11;6.27;;;3.53;;
21305;SDS011;10812;51.838;5.838;2023-03-03T13:16:48;7.07;;;3.47;;
21305;SDS011;10812;51.838;5.838;2023-03-03T13:19:24;4.60;;;3.10;;
21305;SDS011;10812;51.838;5.838;2023-03-03T13:21:57;5.03;;;2.93;;
21305;SDS011;10812;51.838;5.838;2023-03-03T13:24:31;6.20;;;3.97;;
21305;SDS011;10812;51.838;5.838;2023-03-03T13:27:03;4.80;;;3.00;;
21305;SDS011;10812;51.838;5.838;2023-03-03T13:29:34;5.10;;;3.20;;
21305;SDS011;10812;51.838;5.838;2023-03-03T13:32:09;4.27;;;2.67;;
21305;SDS011;10812;51.838;5.838;2023-03-03T13:34:42;6.07;;;3.53;;
21305;SDS011;10812;51.838;5.838;2023-03-03T13:37:18;5.20;;;3.13;;
21305;SDS011;10812;51.838;5.838;2023-03-03T13:39:54;3.40;;;2.40;;
21305;SDS011;10812;51.838;5.838;2023-03-03T13:42:28;4.70;;;3.00;;
21305;SDS011;10812;51.838;5.838;2023-03-03T13:45:06;3.57;;;2.20;;
21305;SDS011;10812;51.838;5.838;2023-03-03T13:47:45;5.40;;;2.43;;
21305;SDS011;10812;51.838;5.838;2023-03-03T13:50:19;3.47;;;2.63;;
21305;SDS011;10812;51.838;5.838;2023-03-03T13:52:57;4.53;;;2.30;;
21305;SDS011;10812;51.838;5.838;2023-03-03T13:55:46;5.23;;;2.73;;
21305;SDS011;10812;51.838;5.838;2023-03-03T13:58:26;2.60;;;2.20;;
21305;SDS011;10812;51.838;5.838;2023-03-03T14:01:05;4.63;;;2.53;;
21305;SDS011;10812;51.838;5.838;2023-03-03T14:03:41;4.10;;;2.50;;
21305;SDS011;10812;51.838;5.838;2023-03-03T14:06:16;4.93;;;2.17;;
21305;SDS011;10812;51.838;5.838;2023-03-03T14:08:49;4.53;;;2.30;;
21305;SDS011;10812;51.838;5.838;2023-03-03T14:11:40;3.30;;;2.30;;
21305;SDS011;10812;51.838;5.838;2023-03-03T14:14:18;6.10;;;3.67;;
21305;SDS011;10812;51.838;5.838;2023-03-03T14:16:59;4.27;;;2.53;;
21305;SDS011;10812;51.838;5.838;2023-03-03T14:19:31;3.23;;;1.87;;
21305;SDS011;10812;51.838;5.838;2023-03-03T14:22:04;4.10;;;2.03;;
21305;SDS011;10812;51.838;5.838;2023-03-03T14:24:55;3.67;;;1.70;;
21305;SDS011;10812;51.838;5.838;2023-03-03T14:27:34;3.50;;;1.70;;
21305;SDS011;10812;51.838;5.838;2023-03-03T14:30:24;5.67;;;1.93;;
21305;SDS011;10812;51.838;5.838;2023-03-03T14:33:01;5.40;;;2.83;;
21305;SDS011;10812;51.838;5.838;2023-03-03T14:35:43;5.10;;;2.70;;
21305;SDS011;10812;51.838;5.838;2023-03-03T14:38:18;5.83;;;2.57;;
21305;SDS011;10812;51.838;5.838;2023-03-03T14:40:48;5.03;;;2.53;;
21305;SDS011;10812;51.838;5.838;2023-03-03T14:43:34;3.73;;;2.10;;
21305;SDS011;10812;51.838;5.838;2023-03-03T14:46:30;2.57;;;1.90;;
21305;SDS011;10812;51.838;5.838;2023-03-03T14:49:03;3.30;;;2.33;;
21305;SDS011;10812;51.838;5.838;2023-03-03T14:51:38;5.00;;;2.00;;
21305;SDS011;10812;51.838;5.838;2023-03-03T14:54:13;2.33;;;1.43;;
21305;SDS011;10812;51.838;5.838;2023-03-03T14:56:57;4.77;;;2.10;;
21305;SDS011;10812;51.838;5.838;2023-03-03T14:59:29;2.83;;;2.00;;
21305;SDS011;10812;51.838;5.838;2023-03-03T15:05:09;3.27;;;1.90;;
21305;SDS011;10812;51.838;5.838;2023-03-03T15:07:43;2.37;;;1.87;;
21305;SDS011;10812;51.838;5.838;2023-03-03T15:10:14;3.23;;;2.13;;
21305;SDS011;10812;51.838;5.838;2023-03-03T15:12:58;3.13;;;1.90;;
21305;SDS011;10812;51.838;5.838;2023-03-03T15:15:41;4.50;;;2.33;;
21305;SDS011;10812;51.838;5.838;2023-03-03T15:18:18;3.17;;;2.20;;
21305;SDS011;10812;51.838;5.838;2023-03-03T15:20:47;5.57;;;2.87;;
21305;SDS011;10812;51.838;5.838;2023-03-03T15:23:39;4.73;;;3.03;;
21305;SDS011;10812;51.838;5.838;2023-03-03T15:26:17;3.17;;;2.33;;
21305;SDS011;10812;51.838;5.838;2023-03-03T15:28:53;5.53;;;2.30;;
21305;SDS011;10812;51.838;5.838;2023-03-03T15:31:33;4.03;;;2.33;;
21305;SDS011;10812;51.838;5.838;2023-03-03T15:34:19;6.63;;;2.30;;
21305;SDS011;10812;51.838;5.838;2023-03-03T15:36:54;3.73;;;1.80;;
21305;SDS011;10812;51.838;5.838;2023-03-03T15:39:35;2.87;;;1.77;;
21305;SDS011;10812;51.838;5.838;2023-03-03T15:42:10;3.10;;;1.87;;
21305;SDS011;10812;51.838;5.838;2023-03-03T15:44:46;1.80;;;1.40;;
21305;SDS011;10812;51.838;5.838;2023-03-03T15:47:37;1.97;;;1.20;;
21305;SDS011;10812;51.838;5.838;2023-03-03T15:50:23;2.80;;;1.50;;
21305;SDS011;10812;51.838;5.838;2023-03-03T15:53:04;5.37;;;1.67;;
21305;SDS011;10812;51.838;5.838;2023-03-03T15:55:44;3.33;;;1.50;;
21305;SDS011;10812;51.838;5.838;2023-03-03T15:58:32;2.27;;;1.33;;
21305;SDS011;10812;51.838;5.838;2023-03-03T16:01:22;2.10;;;1.47;;
21305;SDS011;10812;51.838;5.838;2023-03-03T16:03:55;2.57;;;1.30;;
21305;SDS011;10812;51.838;5.838;2023-03-03T16:06:29;3.47;;;1.43;;
21305;SDS011;10812;51.838;5.838;2023-03-03T16:09:10;2.33;;;1.10;;
21305;SDS011;10812;51.838;5.838;2023-03-03T16:11:48;2.47;;;1.20;;
21305;SDS011;10812;51.838;5.838;2023-03-03T16:14:36;2.73;;;1.30;;
21305;SDS011;10812;51.838;5.838;2023-03-03T16:17:34;1.67;;;1.23;;
21305;SDS011;10812;51.838;5.838;2023-03-03T16:20:14;2.87;;;1.57;;